createdAt,value
2022-10-15T00:45:28.798Z,30.23
2022-10-15T00:50:32.791Z,25.33
2022-10-15T00:55:40.240Z,30.05
2022-10-15T01:00:45.598Z,24.20
2022-10-15T01:05:52.297Z,27.88
2022-10-15T01:11:07.503Z,27.15
2022-10-15T01:16:20.899Z,27.73
2022-10-15T01:21:32.742Z,25.25
2022-10-15T01:27:15.217Z,21.33
2022-10-15T01:32:26.679Z,25.52
2022-10-15T01:37:39.417Z,22.25
2022-10-15T01:42:47.752Z,25.00
2022-10-15T01:47:57.569Z,24.30
2022-10-15T01:53:03.335Z,26.33
2022-10-15T01:58:07.863Z,25.85
2022-10-15T02:03:14.436Z,25.90
2022-10-15T02:08:27.516Z,20.08
2022-10-15T02:13:39.742Z,24.83
2022-10-15T02:18:52.620Z,24.05
2022-10-15T02:24:05.937Z,21.17
2022-10-15T02:29:13.396Z,23.67
2022-10-15T02:34:21.637Z,24.35
2022-10-15T02:39:26.222Z,22.08
2022-10-15T02:44:30.064Z,21.90
2022-10-15T02:49:35.198Z,21.42
2022-10-15T02:54:39.588Z,29.58
2022-10-15T02:59:43.442Z,21.63
2022-10-15T03:04:48.585Z,22.83
2022-10-15T03:09:52.410Z,24.45
2022-10-15T03:14:56.316Z,21.38
2022-10-15T03:20:02.587Z,28.58
2022-10-15T03:25:08.714Z,23.05
2022-10-15T03:30:13.435Z,24.45
2022-10-15T03:35:20.477Z,22.30
2022-10-15T03:40:24.536Z,24.85
2022-10-15T03:45:33.304Z,21.60
2022-10-15T03:50:51.759Z,26.08
2022-10-15T03:55:56.747Z,30.23
2022-10-15T04:01:00.473Z,28.23
2022-10-15T04:06:06.496Z,30.00
2022-10-15T04:11:11.849Z,32.80
2022-10-15T04:16:15.769Z,39.40
2022-10-15T04:21:21.566Z,43.45
2022-10-15T04:26:31.864Z,37.20
2022-10-15T04:31:38.037Z,33.47
2022-10-15T04:36:43.809Z,34.30
2022-10-15T04:41:54.906Z,33.45
2022-10-15T04:47:02.561Z,29.83
2022-10-15T04:52:30.774Z,28.45
2022-10-15T04:57:40.661Z,27.75
2022-10-15T05:02:44.458Z,26.13
2022-10-15T05:08:01.919Z,24.80
2022-10-15T05:13:07.380Z,22.98
2022-10-15T05:23:28.830Z,19.70
2022-10-15T05:28:45.205Z,25.50
2022-10-15T05:34:00.095Z,24.50
2022-10-15T05:39:14.209Z,24.45
2022-10-15T05:44:20.582Z,25.25
2022-10-15T05:49:24.302Z,18.90
2022-10-15T05:54:36.927Z,21.67
2022-10-15T05:59:40.586Z,19.75
2022-10-15T06:04:44.311Z,20.35
2022-10-15T06:09:49.436Z,22.33
2022-10-15T06:14:54.625Z,19.25
2022-10-15T06:19:58.345Z,22.27
2022-10-15T06:25:03.325Z,21.92
2022-10-15T06:30:08.195Z,20.00
2022-10-15T06:35:11.972Z,21.45
2022-10-15T06:40:17.203Z,20.13
2022-10-15T06:45:21.886Z,17.92
2022-10-15T06:50:25.853Z,21.33
2022-10-15T06:55:31.060Z,20.25
2022-10-15T07:05:43.578Z,21.25
2022-10-15T07:10:48.608Z,21.35
2022-10-15T07:15:54.174Z,19.67
2022-10-15T07:20:58.710Z,18.73
2022-10-15T07:26:03.791Z,17.95
2022-10-15T07:31:08.784Z,22.92
2022-10-15T07:36:14.195Z,21.58
2022-10-15T07:41:20.322Z,16.40
2022-10-15T07:46:24.013Z,14.32
2022-10-15T07:51:32.019Z,19.88
2022-10-15T07:56:37.047Z,18.58
2022-10-15T08:01:40.733Z,14.68
2022-10-15T08:06:44.438Z,16.02
2022-10-15T08:11:49.437Z,18.40
2022-10-15T08:16:54.521Z,17.37
2022-10-15T08:21:58.335Z,14.75
2022-10-15T08:27:03.349Z,15.65
2022-10-15T08:32:07.151Z,15.23
2022-10-15T08:37:10.870Z,14.15
2022-10-15T08:42:21.459Z,18.85
2022-10-15T08:47:33.772Z,14.85
2022-10-15T08:52:43.699Z,12.85
2022-10-15T08:57:54.298Z,14.25
2022-10-15T09:03:03.074Z,14.77
2022-10-15T09:08:19.820Z,16.65
2022-10-15T09:13:31.762Z,12.13
2022-10-15T09:18:38.726Z,13.57
2022-10-15T09:23:43.842Z,14.98
2022-10-15T09:28:55.604Z,13.52
2022-10-15T09:34:04.988Z,10.68
2022-10-15T09:39:29.041Z,8.05
2022-10-15T09:44:39.044Z,9.93
2022-10-15T09:49:43.164Z,10.82
2022-10-15T09:54:53.756Z,7.13
2022-10-15T10:00:01.888Z,6.85
2022-10-15T10:05:29.456Z,5.22
2022-10-15T10:10:33.756Z,5.32
2022-10-15T10:15:45.201Z,6.00
2022-10-15T10:20:59.128Z,6.20
2022-10-15T10:26:05.087Z,4.82
2022-10-15T10:31:11.879Z,10.00
2022-10-15T10:36:26.250Z,4.82
2022-10-15T10:41:51.626Z,3.42
2022-10-15T10:47:12.811Z,3.10
2022-10-15T10:52:28.760Z,3.55
2022-10-15T10:57:42.650Z,3.28
2022-10-15T11:02:48.103Z,2.58
2022-10-15T11:07:58.160Z,2.65
2022-10-15T11:13:15.011Z,2.20
2022-10-15T11:18:32.593Z,3.75
2022-10-15T11:23:50.557Z,3.63
2022-10-15T11:29:03.774Z,2.85
2022-10-15T11:34:24.483Z,2.65
2022-10-15T11:39:51.377Z,4.90
2022-10-15T11:50:20.865Z,5.28
2022-10-15T11:55:38.357Z,6.00
2022-10-15T12:00:48.364Z,4.18
2022-10-15T12:05:57.271Z,2.95
2022-10-15T12:11:21.749Z,4.25
2022-10-15T12:16:31.640Z,2.65
2022-10-15T12:21:39.674Z,4.28
2022-10-15T12:26:43.982Z,3.42
2022-10-15T12:31:50.504Z,3.85
2022-10-15T12:37:05.002Z,4.75
2022-10-15T12:42:22.815Z,4.65
2022-10-15T12:47:49.198Z,4.40
2022-10-15T12:52:57.797Z,4.75
2022-10-15T12:58:03.843Z,5.25
2022-10-15T13:03:22.155Z,5.55
2022-10-15T13:08:30.407Z,5.22
2022-10-15T13:13:35.578Z,5.28
2022-10-15T13:18:40.278Z,4.20
2022-10-15T13:23:49.965Z,2.35
2022-10-15T13:28:55.183Z,0.70
2022-10-15T13:34:02.437Z,0.90
2022-10-15T13:39:20.848Z,2.25
2022-10-15T13:44:26.044Z,0.50
2022-10-15T13:49:29.907Z,1.35
2022-10-15T13:54:36.251Z,0.93
2022-10-15T13:59:39.895Z,1.83
2022-10-15T14:04:44.912Z,0.60
2022-10-15T14:09:50.333Z,1.55
2022-10-15T14:14:53.935Z,1.88
2022-10-15T14:20:22.139Z,0.45
2022-10-15T14:25:27.043Z,0.22
2022-10-15T14:30:35.954Z,1.60
2022-10-15T14:35:39.940Z,3.08
2022-10-15T14:40:58.235Z,3.58
2022-10-15T14:46:03.939Z,5.82
2022-10-15T14:51:13.537Z,2.20
2022-10-15T14:56:23.055Z,0.30
2022-10-15T15:01:27.759Z,0.77
2022-10-15T15:06:32.785Z,0.55
2022-10-15T15:11:38.681Z,0.65
2022-10-15T15:16:42.500Z,1.77
2022-10-15T15:21:46.796Z,3.97
2022-10-15T15:26:52.290Z,2.22
2022-10-15T15:31:56.428Z,3.53
2022-10-15T15:37:02.598Z,1.40
2022-10-15T15:42:07.690Z,1.98
2022-10-15T15:47:12.508Z,2.17
2022-10-15T15:52:18.916Z,1.42
2022-10-15T15:57:24.233Z,2.35
2022-10-15T16:02:28.141Z,1.92
2022-10-15T16:07:31.959Z,2.78
2022-10-15T16:12:37.249Z,2.15
2022-10-15T16:17:40.933Z,3.70
2022-10-15T16:22:44.684Z,2.78
2022-10-15T16:27:51.866Z,4.13
2022-10-15T16:32:55.679Z,0.95
2022-10-15T16:37:59.349Z,2.05
2022-10-15T16:43:04.369Z,4.00
2022-10-15T16:48:08.355Z,2.38
2022-10-15T16:53:12.135Z,1.17
2022-10-15T16:58:17.178Z,5.15
2022-10-15T17:03:20.848Z,5.43
2022-10-15T17:08:26.864Z,5.50
2022-10-15T17:13:34.122Z,3.30
2022-10-15T17:18:37.925Z,4.57
2022-10-15T17:23:42.027Z,4.97
2022-10-15T17:28:48.354Z,3.38
2022-10-15T17:33:57.541Z,3.23
2022-10-15T17:39:01.733Z,4.25
2022-10-15T17:44:06.957Z,4.53
2022-10-15T17:49:11.363Z,2.63
2022-10-15T17:54:16.539Z,5.30
2022-10-15T17:59:22.891Z,2.75
2022-10-15T18:04:26.577Z,3.83
2022-10-15T18:09:30.232Z,3.05
2022-10-15T18:14:38.758Z,4.65
2022-10-15T18:19:42.732Z,11.95
2022-10-15T18:24:46.556Z,4.10
2022-10-15T18:29:51.623Z,5.65
2022-10-15T18:34:56.156Z,13.30
2022-10-15T18:40:01.889Z,6.65
2022-10-15T18:45:08.020Z,3.88
2022-10-15T18:50:11.884Z,5.23
2022-10-15T18:55:16.636Z,6.43
2022-10-15T19:00:22.747Z,7.72
2022-10-15T19:05:26.412Z,6.07
2022-10-15T19:10:30.133Z,2.42
2022-10-15T19:15:37.596Z,5.90
2022-10-15T19:20:41.277Z,2.28
2022-10-15T19:25:46.355Z,2.78
2022-10-15T19:30:57.721Z,3.15
2022-10-15T19:36:02.408Z,7.47
2022-10-15T19:41:07.752Z,5.10
2022-10-15T19:46:13.261Z,3.17
2022-10-15T19:56:44.623Z,3.90
2022-10-15T20:01:50.616Z,3.60
2022-10-15T20:06:56.907Z,3.58
2022-10-15T20:12:00.961Z,2.90
2022-10-15T20:17:06.892Z,2.95
2022-10-15T20:34:21.807Z,3.22
2022-10-15T20:39:25.816Z,4.75
2022-10-15T20:44:31.174Z,2.78
2022-10-15T20:49:41.366Z,3.20
2022-10-15T20:55:13.945Z,7.30
2022-10-15T21:00:36.441Z,5.28
2022-10-15T22:10:04.220Z,6.88
2022-10-15T22:15:09.051Z,3.42
2022-10-15T22:20:12.846Z,6.55
2022-10-15T22:25:18.165Z,4.18
2022-10-15T23:27:26.301Z,2.28
2022-10-15T23:32:30.263Z,1.80
2022-10-15T23:37:33.948Z,2.42
2022-10-15T23:42:39.101Z,3.58
2022-10-15T23:47:42.736Z,4.38
2022-10-15T23:52:46.413Z,2.20
2022-10-15T23:57:51.371Z,5.68
